Time;durP1;ratioP1;P1;durP2;ratioP2;P2;SDS_P1;SDS_P2;PMS_P1;PMS_P2;Temp;Humidity;BMP_temperature;BMP_pressure;BME280_temperature;BME280_humidity;BME280_pressure;Samples;Min_cycle;Max_cycle;Signal;HPM_P1;HPM_P2
2022/06/02 00:00:16;;;;;;;3.55;2.10;;;10.00;99.90;;;;;;5031881;28;20048;-75
2022/06/02 00:03:03;;;;;;;2.80;1.70;;;9.90;99.90;;;;;;5032466;28;20042;-75
2022/06/02 00:05:50;;;;;;;2.88;1.70;;;9.80;99.90;;;;;;5032654;28;20124;-75
2022/06/02 00:08:18;;;;;;;2.50;1.70;;;9.80;99.90;;;;;;5031727;28;20049;-76
2022/06/02 00:11:23;;;;;;;2.65;1.77;;;9.70;99.90;;;;;;5015848;28;20553;-75
2022/06/02 00:14:17;;;;;;;4.13;1.70;;;9.70;99.90;;;;;;5031510;28;20095;-75
2022/06/02 00:17:06;;;;;;;3.20;1.60;;;9.70;99.90;;;;;;5016136;28;20394;-75
2022/06/02 00:19:37;;;;;;;4.25;2.20;;;9.70;99.90;;;;;;5014445;28;20037;-76
2022/06/02 00:22:30;;;;;;;4.07;2.20;;;9.70;99.90;;;;;;5032057;28;20120;-75
2022/06/02 00:25:01;;;;;;;;;;;9.60;99.90;;;;;;5015341;28;20492;-75
2022/06/02 00:27:44;;;;;;;4.30;2.40;;;9.50;99.90;;;;;;5023427;28;19926;-75
2022/06/02 00:30:28;;;;;;;3.47;2.10;;;9.40;99.90;;;;;;5012713;28;20355;-75
2022/06/02 00:33:14;;;;;;;4.60;2.08;;;9.40;99.90;;;;;;5012972;28;20486;-75
2022/06/02 00:35:53;;;;;;;2.38;1.30;;;9.40;99.90;;;;;;5031519;28;20037;-75
2022/06/02 00:38:28;;;;;;;1.80;1.30;;;9.40;99.90;;;;;;5032282;28;20049;-75
2022/06/02 00:41:02;;;;;;;3.17;1.80;;;9.50;99.90;;;;;;5031873;28;20093;-75
2022/06/02 00:43:30;;;;;;;5.28;2.75;;;9.50;99.90;;;;;;5014758;28;20080;-75
2022/06/02 00:46:23;;;;;;;5.68;2.70;;;9.40;99.90;;;;;;5048748;28;20395;-75
2022/06/02 00:49:06;;;;;;;3.45;2.15;;;9.40;99.90;;;;;;5031591;28;20103;-75
2022/06/02 00:51:41;;;;;;;4.70;2.40;;;9.30;99.90;;;;;;5013607;28;20042;-75
2022/06/02 00:57:30;;;;;;;4.53;2.60;;;9.10;99.90;;;;;;5029511;28;20050;-73
2022/06/02 01:00:07;;;;;;;4.68;2.60;;;8.90;99.90;;;;;;5047518;28;20112;-73
2022/06/02 01:02:51;;;;;;;7.10;3.90;;;8.80;99.90;;;;;;5031613;28;20045;-73
2022/06/02 01:05:35;;;;;;;5.80;3.40;;;8.80;99.90;;;;;;5015329;28;20048;-73
2022/06/02 01:08:37;;;;;;;6.85;3.83;;;8.80;99.90;;;;;;5031366;28;20038;-72
2022/06/02 01:11:11;;;;;;;6.45;3.83;;;8.70;99.90;;;;;;5031756;28;20041;-72
2022/06/02 01:14:09;;;;;;;8.05;4.38;;;8.70;99.90;;;;;;5028683;28;20410;-74
2022/06/02 01:16:52;;;;;;;5.18;2.78;;;8.80;99.90;;;;;;5022604;28;20058;-74
2022/06/02 01:19:38;;;;;;;5.05;2.30;;;8.80;99.90;;;;;;5019189;28;20040;-74
2022/06/02 01:22:48;;;;;;;4.43;2.00;;;8.90;99.90;;;;;;5001077;28;20054;-74
2022/06/02 01:25:32;;;;;;;4.53;2.30;;;8.90;99.90;;;;;;4998556;28;20397;-73
2022/06/02 01:28:22;;;;;;;4.38;1.83;;;8.90;99.90;;;;;;5030259;28;20042;-74
2022/06/02 01:31:26;;;;;;;3.65;2.00;;;8.80;99.90;;;;;;5032961;28;20049;-74
2022/06/02 01:33:59;;;;;;;3.85;1.80;;;8.80;99.90;;;;;;5018367;28;20037;-73
2022/06/02 01:36:41;;;;;;;4.07;2.10;;;8.80;99.90;;;;;;5035018;28;20037;-73
2022/06/02 01:39:18;;;;;;;3.75;2.00;;;8.70;99.90;;;;;;5035030;28;20120;-73
2022/06/02 01:42:12;;;;;;;3.20;1.80;;;8.70;99.90;;;;;;5017922;28;20056;-73
2022/06/02 01:44:47;;;;;;;3.55;1.60;;;8.60;99.90;;;;;;5021849;28;20482;-73
2022/06/02 01:47:31;;;;;;;2.70;1.70;;;8.60;99.90;;;;;;5016953;28;20037;-73
2022/06/02 01:50:40;;;;;;;2.72;1.60;;;8.60;99.90;;;;;;5034176;28;20036;-73
2022/06/02 01:53:36;;;;;;;2.83;1.60;;;8.50;99.90;;;;;;5025991;28;20045;-73
2022/06/02 01:56:16;;;;;;;2.00;1.05;;;8.50;99.90;;;;;;5031937;28;20045;-73
2022/06/02 01:59:16;;;;;;;1.92;1.10;;;8.50;99.90;;;;;;5020590;28;20048;-74
2022/06/02 02:01:51;;;;;;;1.92;1.23;;;8.50;99.90;;;;;;5018137;28;20521;-73
2022/06/02 02:04:16;;;;;;;3.05;1.75;;;8.50;99.90;;;;;;5032721;28;20041;-74
2022/06/02 02:06:51;;;;;;;3.72;1.80;;;8.30;99.90;;;;;;5018116;28;20490;-74
2022/06/02 02:09:30;;;;;;;2.65;1.58;;;8.30;99.90;;;;;;5043304;28;20106;-74
2022/06/02 02:11:59;;;;;;;1.92;1.00;;;8.30;99.90;;;;;;5031263;28;20049;-74
2022/06/02 02:15:12;;;;;;;2.47;1.50;;;8.20;99.90;;;;;;5031678;28;20056;-74
2022/06/02 02:18:13;;;;;;;2.03;1.20;;;8.20;99.90;;;;;;5032804;28;20464;-74
2022/06/02 02:21:00;;;;;;;2.50;1.30;;;8.20;99.90;;;;;;5003223;28;20115;-74
2022/06/02 02:24:05;;;;;;;3.70;1.60;;;8.10;99.90;;;;;;5032609;28;20049;-74
2022/06/02 02:26:36;;;;;;;2.83;1.40;;;8.10;99.90;;;;;;5001452;28;20107;-74
2022/06/02 02:29:14;;;;;;;3.28;1.30;;;8.10;99.90;;;;;;5050454;28;20051;-74
2022/06/02 02:32:05;;;;;;;2.47;1.35;;;8.10;99.90;;;;;;5031143;28;20045;-74
2022/06/02 02:35:09;;;;;;;2.40;1.40;;;8.10;99.90;;;;;;5050916;28;20060;-74
2022/06/02 02:37:47;;;;;;;3.10;1.60;;;8.00;99.90;;;;;;5033168;28;20041;-74
2022/06/02 02:40:30;;;;;;;4.55;2.40;;;8.00;99.90;;;;;;5017555;28;20049;-74
2022/06/02 02:43:06;;;;;;;3.38;1.88;;;8.00;99.90;;;;;;5014498;28;20402;-74
2022/06/02 02:45:46;;;;;;;3.58;2.00;;;7.90;99.90;;;;;;5029561;28;20080;-74
2022/06/02 02:48:27;;;;;;;3.65;2.10;;;8.00;99.90;;;;;;5032359;28;20034;-75
2022/06/02 02:51:04;;;;;;;3.60;2.00;;;7.90;99.90;;;;;;5029602;28;20045;-74
2022/06/02 02:53:56;;;;;;;4.10;2.30;;;7.90;99.90;;;;;;5023106;28;20094;-74
2022/06/02 02:56:37;;;;;;;6.97;2.80;;;8.00;99.90;;;;;;5034365;28;20037;-74
2022/06/02 02:59:27;;;;;;;5.85;3.03;;;7.90;99.90;;;;;;5023397;28;20375;-74
2022/06/02 03:02:13;;;;;;;6.03;3.28;;;7.80;99.90;;;;;;5037987;28;20042;-74
2022/06/02 03:05:00;;;;;;;6.85;4.05;;;7.80;99.90;;;;;;5012575;28;20045;-74
2022/06/02 03:07:29;;;;;;;7.30;4.30;;;7.80;99.90;;;;;;5032371;28;20043;-74
2022/06/02 03:10:09;;;;;;;6.82;3.70;;;7.70;99.90;;;;;;5033054;28;20486;-74
2022/06/02 03:12:51;;;;;;;7.07;3.05;;;7.70;99.90;;;;;;5018475;28;20038;-74
2022/06/02 03:15:44;;;;;;;5.70;3.38;;;7.70;99.90;;;;;;5015547;28;20041;-74
2022/06/02 03:18:30;;;;;;;5.70;3.00;;;7.70;99.90;;;;;;5031452;28;20042;-74
2022/06/02 03:21:10;;;;;;;5.75;3.05;;;7.70;99.90;;;;;;5033287;28;20543;-73
2022/06/02 03:23:47;;;;;;;7.85;4.70;;;7.70;99.90;;;;;;5031214;28;20041;-73
2022/06/02 03:26:42;;;;;;;9.13;5.57;;;7.70;99.90;;;;;;5038115;28;20513;-73
2022/06/02 03:29:14;;;;;;;8.30;4.80;;;7.70;99.90;;;;;;5027913;28;20055;-74
2022/06/02 03:32:01;;;;;;;5.28;3.00;;;7.70;99.90;;;;;;5033103;28;20033;-74
2022/06/02 03:34:35;;;;;;;5.93;3.40;;;7.60;99.90;;;;;;5014349;28;20184;-73
2022/06/02 03:37:16;;;;;;;7.43;4.07;;;7.70;99.90;;;;;;5030765;28;20041;-73
2022/06/02 03:39:53;;;;;;;6.00;3.20;;;7.60;99.90;;;;;;5013158;28;20058;-73
2022/06/02 03:42:46;;;;;;;6.45;3.88;;;7.70;99.90;;;;;;5015057;28;20072;-73
2022/06/02 03:45:15;;;;;;;6.28;3.65;;;7.60;99.90;;;;;;5032041;28;20049;-73
2022/06/02 03:48:10;;;;;;;6.90;4.00;;;7.60;99.90;;;;;;5030613;28;20092;-73
2022/06/02 03:50:52;;;;;;;7.70;4.53;;;7.60;99.90;;;;;;5031927;28;20045;-73
2022/06/02 03:53:41;;;;;;;8.20;5.50;;;7.60;99.90;;;;;;5030966;28;20045;-76
2022/06/02 03:56:44;;;;;;;8.80;5.80;;;7.60;99.90;;;;;;5020252;28;20054;-75
2022/06/02 03:59:09;;;;;;;9.05;5.65;;;7.50;99.90;;;;;;5046177;28;20045;-73
2022/06/02 04:01:41;;;;;;;9.25;5.75;;;7.60;99.90;;;;;;5010819;28;20092;-74
2022/06/02 04:04:23;;;;;;;8.77;5.93;;;7.50;99.90;;;;;;5031986;28;20041;-73
2022/06/02 04:07:20;;;;;;;9.13;5.95;;;7.60;99.90;;;;;;5015211;28;20064;-73
2022/06/02 04:09:49;;;;;;;9.25;5.80;;;7.60;99.90;;;;;;5049389;28;20049;-74
2022/06/02 04:15:50;;;;;;;5.43;3.15;;;7.70;99.90;;;;;;5047811;28;20045;-73
2022/06/02 04:18:22;;;;;;;5.95;3.25;;;7.80;99.90;;;;;;5039976;28;20069;-73
2022/06/02 04:21:24;;;;;;;5.72;3.13;;;7.70;99.90;;;;;;5028965;28;20057;-75
2022/06/02 04:24:05;;;;;;;6.97;3.73;;;7.70;99.90;;;;;;5021962;28;20049;-74
2022/06/02 04:26:49;;;;;;;7.05;3.60;;;7.70;99.90;;;;;;5030332;28;20062;-74
2022/06/02 04:29:17;;;;;;;7.38;4.60;;;7.80;99.90;;;;;;5029056;28;20121;-74
2022/06/02 04:32:02;;;;;;;8.75;5.07;;;7.80;99.90;;;;;;5018163;28;20037;-75
2022/06/02 04:34:47;;;;;;;7.72;5.05;;;8.00;99.90;;;;;;5029919;28;20117;-74
2022/06/02 04:37:16;;;;;;;8.68;5.70;;;8.00;99.90;;;;;;5029821;28;20037;-74
2022/06/02 04:40:14;;;;;;;8.98;6.32;;;8.10;99.90;;;;;;5030550;28;20056;-74
2022/06/02 04:42:55;;;;;;;9.60;5.97;;;8.20;99.90;;;;;;5027800;28;20071;-75
2022/06/02 04:45:41;;;;;;;9.95;6.20;;;8.30;99.90;;;;;;5029680;28;20083;-75
2022/06/02 04:48:20;;;;;;;8.38;6.88;;;8.40;99.90;;;;;;5030734;28;20033;-75
2022/06/02 04:50:51;;;;;;;9.38;6.90;;;8.40;99.90;;;;;;5030207;28;20041;-75
2022/06/02 04:53:27;;;;;;;9.20;6.45;;;8.50;99.90;;;;;;5029898;28;20049;-75
2022/06/02 04:55:58;;;;;;;11.27;7.28;;;8.50;99.90;;;;;;5014273;28;20064;-75
2022/06/02 04:58:31;;;;;;;12.63;8.50;;;8.60;99.90;;;;;;5027517;28;20037;-75
2022/06/02 05:01:21;;;;;;;10.27;7.57;;;8.60;99.90;;;;;;5014204;28;20048;-75
2022/06/02 05:04:10;;;;;;;11.68;7.70;;;8.60;99.90;;;;;;5014546;28;20091;-74
2022/06/02 05:06:48;;;;;;;10.80;7.60;;;8.60;99.90;;;;;;5017835;28;20045;-73
2022/06/02 05:09:30;;;;;;;11.65;8.45;;;8.70;99.90;;;;;;5051055;28;20121;-75
2022/06/02 05:12:30;;;;;;;11.63;8.73;;;8.80;99.90;;;;;;5035029;28;20084;-74
2022/06/02 05:15:35;;;;;;;13.43;8.63;;;8.90;99.90;;;;;;5016120;28;20406;-73
2022/06/02 05:18:15;;;;;;;13.13;9.60;;;9.00;99.90;;;;;;5009641;28;20489;-75
2022/06/02 05:20:46;;;;;;;12.38;9.95;;;9.10;99.90;;;;;;5035068;28;20041;-74
2022/06/02 05:23:15;;;;;;;12.65;9.85;;;9.10;99.90;;;;;;5012561;28;20048;-74
2022/06/02 05:26:18;;;;;;;13.35;10.02;;;9.10;99.90;;;;;;5015797;28;20048;-74
2022/06/02 05:29:09;;;;;;;12.98;9.48;;;9.30;99.90;;;;;;5034011;28;20504;-75
2022/06/02 05:32:07;;;;;;;13.07;9.00;;;9.40;99.90;;;;;;5033577;28;20559;-74
2022/06/02 05:35:11;;;;;;;11.48;8.95;;;9.50;99.90;;;;;;5023627;28;20116;-74
2022/06/02 05:38:00;;;;;;;12.25;8.48;;;9.60;99.90;;;;;;5016629;28;20052;-74
2022/06/02 05:40:38;;;;;;;12.05;9.70;;;9.80;99.90;;;;;;5033999;28;20060;-74
2022/06/02 05:43:33;;;;;;;14.55;8.80;;;9.90;99.90;;;;;;5033249;28;20466;-74
2022/06/02 05:46:22;;;;;;;11.85;8.63;;;10.00;99.90;;;;;;5033701;28;20072;-74
2022/06/02 05:49:12;;;;;;;10.07;7.43;;;10.10;99.90;;;;;;5048496;28;20041;-74
2022/06/02 05:51:47;;;;;;;13.05;8.73;;;10.30;99.90;;;;;;5018275;28;20041;-74
2022/06/02 05:54:20;;;;;;;11.10;7.80;;;10.50;99.90;;;;;;5032226;28;20049;-74
2022/06/02 05:57:19;;;;;;;10.75;8.10;;;10.60;99.90;;;;;;5024127;28;20080;-74
2022/06/02 05:59:54;;;;;;;11.77;8.18;;;10.80;99.90;;;;;;5014453;28;20045;-74
2022/06/02 06:02:33;;;;;;;14.02;8.75;;;11.10;99.90;;;;;;5032803;28;20241;-75
2022/06/02 06:05:10;;;;;;;9.60;7.00;;;11.20;99.90;;;;;;5016775;28;20034;-74
2022/06/02 06:07:43;;;;;;;9.40;7.32;;;11.30;99.90;;;;;;5026173;28;20046;-75
2022/06/02 06:10:21;;;;;;;11.02;6.95;;;11.50;99.90;;;;;;5031426;28;20042;-75
2022/06/02 06:12:55;;;;;;;10.65;6.65;;;11.60;99.90;;;;;;5033455;28;20043;-75
2022/06/02 06:15:43;;;;;;;10.65;6.82;;;11.70;99.90;;;;;;5033804;28;20045;-75
2022/06/02 06:18:25;;;;;;;9.70;6.85;;;11.90;99.90;;;;;;5026222;28;20088;-75
2022/06/02 06:21:16;;;;;;;10.60;6.30;;;12.00;99.90;;;;;;5004657;28;20136;-75
2022/06/02 06:23:48;;;;;;;9.70;5.88;;;12.10;99.90;;;;;;5025216;28;20056;-75
2022/06/02 06:26:34;;;;;;;7.30;5.35;;;12.30;99.90;;;;;;5016265;28;20465;-75
2022/06/02 06:29:12;;;;;;;7.90;5.28;;;12.40;99.90;;;;;;5008782;28;20049;-76
2022/06/02 06:32:02;;;;;;;8.45;5.40;;;12.60;99.90;;;;;;5044473;28;20045;-76
2022/06/02 06:34:41;;;;;;;7.55;5.05;;;12.60;99.90;;;;;;5023743;28;20044;-76
2022/06/02 06:37:36;;;;;;;8.82;5.68;;;12.70;99.90;;;;;;5029861;28;20087;-76
2022/06/02 06:40:41;;;;;;;7.97;5.07;;;12.80;99.90;;;;;;5025467;28;20054;-75
2022/06/02 06:43:10;;;;;;;7.85;4.57;;;12.90;99.90;;;;;;5031794;28;20825;-75
2022/06/02 06:45:54;;;;;;;6.97;4.28;;;13.10;99.90;;;;;;5022567;28;20052;-75
2022/06/02 06:48:30;;;;;;;7.82;4.25;;;13.10;99.90;;;;;;5028773;28;20124;-75
2022/06/02 06:51:09;;;;;;;7.18;3.58;;;13.20;99.90;;;;;;5032487;28;20444;-75
2022/06/02 06:54:08;;;;;;;5.40;3.00;;;13.30;99.90;;;;;;5031358;28;20120;-75
2022/06/02 06:56:57;;;;;;;6.20;3.55;;;13.40;99.90;;;;;;5032001;28;20048;-75
2022/06/02 06:59:23;;;;;;;8.13;3.38;;;13.50;99.90;;;;;;5032161;28;20052;-75
2022/06/02 07:02:13;;;;;;;6.25;3.58;;;13.50;99.90;;;;;;5039669;28;20041;-75
2022/06/02 07:04:54;;;;;;;6.60;3.42;;;13.60;99.90;;;;;;5027515;28;20041;-75
2022/06/02 07:07:41;;;;;;;7.30;3.50;;;13.60;99.90;;;;;;5030409;28;20045;-75
2022/06/02 07:10:27;;;;;;;7.38;3.10;;;13.60;99.90;;;;;;5030540;28;20038;-75
2022/06/02 07:13:06;;;;;;;7.65;3.42;;;13.60;99.90;;;;;;5015659;28;20029;-75
2022/06/02 07:15:47;;;;;;;6.47;3.13;;;13.70;99.90;;;;;;5030733;28;20041;-75
2022/06/02 07:18:17;;;;;;;6.60;3.15;;;13.60;99.90;;;;;;5028736;28;20194;-75
2022/06/02 07:20:52;;;;;;;5.18;2.70;;;13.60;99.90;;;;;;5021006;28;20048;-75
2022/06/02 07:23:36;;;;;;;5.72;2.42;;;13.50;99.90;;;;;;5029914;28;20048;-75
2022/06/02 07:26:20;;;;;;;6.05;2.53;;;13.40;99.90;;;;;;5016467;28;20444;-74
2022/06/02 07:29:04;;;;;;;8.10;2.50;;;13.40;99.90;;;;;;5026590;28;20126;-75
2022/06/02 07:31:35;;;;;;;4.45;2.35;;;13.50;99.90;;;;;;5032227;28;20075;-75
2022/06/02 07:34:31;;;;;;;5.43;2.90;;;13.80;99.90;;;;;;5028971;28;20040;-75
2022/06/02 07:37:06;;;;;;;4.65;2.92;;;13.80;99.90;;;;;;5024857;28;20281;-74
2022/06/02 07:40:06;;;;;;;6.85;2.50;;;13.70;99.90;;;;;;5028217;28;20061;-74
2022/06/02 07:43:03;;;;;;;6.15;2.63;;;13.60;99.90;;;;;;5027837;28;20045;-75
2022/06/02 07:45:52;;;;;;;4.72;2.22;;;13.60;99.90;;;;;;5015068;28;20056;-74
2022/06/02 07:48:47;;;;;;;5.68;2.80;;;13.60;99.90;;;;;;5030596;28;20048;-75
2022/06/02 07:51:36;;;;;;;5.07;2.65;;;13.70;99.90;;;;;;5031469;28;20037;-70
2022/06/02 07:54:13;;;;;;;5.20;2.60;;;13.90;99.90;;;;;;5034891;28;20436;-75
2022/06/02 07:56:51;;;;;;;5.63;2.30;;;14.20;99.90;;;;;;5013949;28;20045;-75
2022/06/02 07:59:32;;;;;;;5.82;2.50;;;14.20;99.90;;;;;;5031585;28;20056;-75
2022/06/02 08:02:13;;;;;;;4.80;2.40;;;14.30;99.90;;;;;;5031180;28;20048;-75
2022/06/02 08:05:04;;;;;;;6.53;2.60;;;14.30;99.90;;;;;;5031016;28;20041;-75
2022/06/02 08:07:54;;;;;;;4.90;2.53;;;14.50;99.90;;;;;;5030016;28;20115;-75
2022/06/02 08:10:27;;;;;;;4.55;2.30;;;14.70;99.90;;;;;;5009673;28;20064;-75
2022/06/02 08:13:25;;;;;;;4.50;2.10;;;14.80;99.90;;;;;;5030206;28;20116;-75
2022/06/02 08:16:15;;;;;;;5.05;2.08;;;14.90;99.90;;;;;;4981598;28;20050;-74
2022/06/02 08:19:13;;;;;;;5.03;2.10;;;14.70;99.90;;;;;;5020696;28;20087;-75
2022/06/02 08:21:41;;;;;;;5.07;2.30;;;14.60;99.90;;;;;;5028078;28;20064;-74
2022/06/02 08:24:29;;;;;;;4.95;2.38;;;14.50;99.90;;;;;;5047626;28;20091;-74
2022/06/02 08:27:19;;;;;;;4.97;2.10;;;14.70;99.90;;;;;;5012714;28;20091;-74
2022/06/02 08:29:57;;;;;;;5.63;2.05;;;15.00;99.90;;;;;;5016354;28;20045;-75
2022/06/02 08:32:52;;;;;;;4.82;1.85;;;15.00;99.90;;;;;;5013188;28;20045;-75
2022/06/02 08:35:36;;;;;;;5.60;2.22;;;15.00;99.90;;;;;;5029658;28;20052;-75
2022/06/02 08:38:11;;;;;;;3.63;2.05;;;14.80;99.90;;;;;;5029752;28;20033;-75
2022/06/02 08:40:54;;;;;;;5.05;2.15;;;14.80;99.90;;;;;;5029583;28;20096;-75
2022/06/02 08:43:26;;;;;;;3.15;1.73;;;14.70;99.90;;;;;;5029176;28;20049;-75
2022/06/02 08:46:17;;;;;;;4.70;2.67;;;14.80;99.90;;;;;;5028477;28;20038;-75
2022/06/02 08:48:46;;;;;;;4.63;2.40;;;14.90;99.90;;;;;;4997603;28;20046;-75
2022/06/02 08:51:23;;;;;;;5.82;2.60;;;15.10;99.90;;;;;;5030327;28;20516;-75
2022/06/02 08:54:10;;;;;;;5.85;2.65;;;15.40;99.90;;;;;;5030158;28;20041;-75
2022/06/02 08:56:59;;;;;;;3.38;2.08;;;15.60;99.90;;;;;;5014673;28;20400;-75
2022/06/02 08:59:49;;;;;;;6.90;2.10;;;15.60;99.90;;;;;;5028796;28;20045;-75
2022/06/02 09:02:24;;;;;;;3.85;1.90;;;15.60;99.90;;;;;;5031873;28;20433;-75
2022/06/02 09:05:26;;;;;;;3.60;1.75;;;15.50;99.90;;;;;;5029266;28;20405;-75
2022/06/02 09:08:17;;;;;;;3.45;2.08;;;15.30;99.90;;;;;;5030335;28;20030;-75
2022/06/02 09:10:53;;;;;;;4.68;1.70;;;15.40;99.90;;;;;;5014721;28;20539;-75
2022/06/02 09:13:18;;;;;;;5.00;1.80;;;15.40;99.90;;;;;;5006771;28;20108;-74
2022/06/02 09:16:16;;;;;;;3.83;1.92;;;15.50;99.90;;;;;;5023544;28;20042;-75
2022/06/02 09:19:00;;;;;;;4.13;1.63;;;15.50;99.90;;;;;;5012967;28;20099;-74
2022/06/02 09:21:33;;;;;;;4.18;1.50;;;15.40;99.90;;;;;;5030320;28;20033;-75
2022/06/02 09:24:14;;;;;;;4.13;1.80;;;15.40;99.90;;;;;;5026670;28;20046;-75
2022/06/02 09:27:10;;;;;;;3.90;2.30;;;15.60;99.90;;;;;;5020203;28;20095;-75
2022/06/02 09:30:03;;;;;;;4.97;2.40;;;15.80;99.90;;;;;;5028632;28;20033;-75
2022/06/02 09:33:33;;;;;;;4.95;2.08;;;15.80;99.90;;;;;;5029865;28;20056;-75
2022/06/02 09:35:59;;;;;;;4.00;1.80;;;15.90;99.90;;;;;;5027078;28;20049;-75
2022/06/02 09:38:45;;;;;;;5.05;1.70;;;15.80;99.90;;;;;;5030228;28;20116;-75
2022/06/02 09:41:35;;;;;;;3.97;1.85;;;15.80;99.90;;;;;;5030216;28;20053;-75
2022/06/02 09:44:22;;;;;;;3.38;1.63;;;15.70;99.90;;;;;;5026722;28;20115;-75
2022/06/02 09:47:13;;;;;;;4.90;2.20;;;15.70;99.90;;;;;;5043286;28;20033;-75
2022/06/02 09:50:05;;;;;;;3.67;1.83;;;15.80;99.90;;;;;;5011063;28;20068;-74
2022/06/02 09:52:58;;;;;;;4.13;2.28;;;15.70;99.90;;;;;;5043882;28;20064;-74
2022/06/02 09:55:37;;;;;;;8.85;2.30;;;15.80;99.90;;;;;;5032388;28;20459;-75
2022/06/02 09:58:41;;;;;;;6.03;2.20;;;16.00;99.90;;;;;;5033242;28;20045;-74
2022/06/02 10:01:36;;;;;;;4.05;2.00;;;16.20;99.90;;;;;;5004342;28;20076;-74
2022/06/02 10:04:39;;;;;;;4.70;2.10;;;16.40;99.90;;;;;;5031943;28;20033;-75
2022/06/02 10:07:13;;;;;;;4.28;1.67;;;16.40;99.90;;;;;;5032640;28;20044;-74
2022/06/02 10:10:00;;;;;;;3.65;1.80;;;16.30;99.90;;;;;;5033160;28;20091;-74
2022/06/02 10:15:33;;;;;;;5.10;1.92;;;16.10;99.90;;;;;;5034039;28;20049;-74
2022/06/02 10:18:43;;;;;;;5.53;1.77;;;16.00;99.90;;;;;;5017163;28;20049;-74
2022/06/02 10:21:28;;;;;;;3.53;1.77;;;16.00;99.90;;;;;;4986107;28;20038;-74
2022/06/02 10:24:29;;;;;;;3.78;1.77;;;16.10;99.90;;;;;;5029640;28;20079;-74
2022/06/02 10:27:14;;;;;;;3.08;1.70;;;16.30;99.90;;;;;;5018696;28;20045;-74
2022/06/02 10:30:03;;;;;;;3.65;1.77;;;16.50;99.90;;;;;;5036792;28;20047;-74
2022/06/02 10:33:14;;;;;;;4.35;2.10;;;16.70;99.90;;;;;;5017442;28;20049;-74
2022/06/02 10:36:07;;;;;;;4.30;2.10;;;16.80;99.90;;;;;;5048676;28;20060;-74
2022/06/02 10:39:10;;;;;;;3.25;1.70;;;17.00;99.90;;;;;;5029554;28;20090;-75
2022/06/02 10:41:57;;;;;;;4.00;1.80;;;16.90;99.90;;;;;;5036622;28;20094;-75
2022/06/02 10:44:51;;;;;;;4.90;2.00;;;16.90;99.90;;;;;;5037084;28;20390;-74
2022/06/02 10:47:55;;;;;;;3.95;1.80;;;16.80;99.90;;;;;;5030347;28;20039;-74
2022/06/02 10:51:08;;;;;;;3.33;1.60;;;16.80;99.90;;;;;;5041915;28;20041;-75
2022/06/02 10:54:21;;;;;;;5.93;1.80;;;16.60;99.90;;;;;;5029909;28;20049;-75
2022/06/02 10:57:03;;;;;;;3.35;1.70;;;16.60;99.90;;;;;;4997779;28;20059;-74
2022/06/02 10:59:38;;;;;;;;;;;16.80;99.90;;;;;;5016744;28;20049;-76
2022/06/02 11:02:32;;;;;;;2.95;1.70;;;17.00;99.90;;;;;;5027035;28;19971;-75
2022/06/02 11:05:35;;;;;;;4.32;1.90;;;17.20;99.90;;;;;;5019785;28;20064;-75
2022/06/02 11:08:42;;;;;;;4.55;1.85;;;17.30;99.90;;;;;;5045069;28;20452;-75
2022/06/02 11:11:23;;;;;;;3.60;2.00;;;17.50;99.90;;;;;;5031457;28;20045;-75
2022/06/02 11:14:20;;;;;;;5.30;1.98;;;17.60;99.90;;;;;;5031334;28;20049;-75
2022/06/02 11:17:23;;;;;;;4.15;1.95;;;17.70;99.90;;;;;;5047311;28;20045;-74
2022/06/02 11:19:57;;;;;;;3.33;1.80;;;17.80;99.90;;;;;;5048361;28;20133;-74
2022/06/02 11:22:56;;;;;;;5.82;2.10;;;17.70;99.90;;;;;;5046552;28;20046;-74
2022/06/02 11:26:10;;;;;;;4.57;1.67;;;17.50;99.90;;;;;;5031597;28;20037;-74
2022/06/02 11:28:47;;;;;;;4.00;1.70;;;17.40;99.90;;;;;;5030553;28;20045;-76
2022/06/02 11:31:34;;;;;;;3.72;1.73;;;17.20;99.90;;;;;;5048003;28;20099;-76
2022/06/02 11:34:37;;;;;;;4.25;1.70;;;17.20;99.90;;;;;;5046731;28;20053;-76
2022/06/02 11:37:09;;;;;;;4.88;1.80;;;17.20;99.90;;;;;;5029882;28;20038;-75
2022/06/02 11:40:07;;;;;;;3.85;1.70;;;17.30;99.90;;;;;;5030468;28;20759;-75
2022/06/02 11:42:55;;;;;;;4.55;1.92;;;17.40;99.90;;;;;;4982169;28;20084;-75
2022/06/02 11:45:59;;;;;;;4.50;1.83;;;17.50;99.90;;;;;;5023385;28;20037;-75
2022/06/02 11:48:43;;;;;;;4.80;1.77;;;17.50;99.90;;;;;;5032812;28;20041;-74
2022/06/02 11:51:24;;;;;;;7.00;1.85;;;17.50;99.90;;;;;;5030431;28;20243;-73
2022/06/02 11:54:05;;;;;;;4.22;1.60;;;17.40;99.90;;;;;;5029180;28;20567;-74
2022/06/02 11:56:41;;;;;;;5.22;1.77;;;17.20;99.90;;;;;;5031628;28;20128;-73
2022/06/02 11:59:40;;;;;;;4.78;1.90;;;17.30;99.90;;;;;;5015210;28;20045;-75
2022/06/02 12:02:30;;;;;;;7.10;2.03;;;17.40;99.90;;;;;;5012769;28;20045;-75
2022/06/02 12:05:24;;;;;;;4.55;2.25;;;17.40;99.90;;;;;;5024468;28;20045;-75
2022/06/02 12:08:38;;;;;;;5.32;2.00;;;17.70;99.90;;;;;;5032573;28;20075;-75
2022/06/02 12:11:22;;;;;;;6.85;2.20;;;17.70;99.90;;;;;;5032369;28;20038;-75
2022/06/02 12:14:07;;;;;;;4.30;1.73;;;17.80;99.90;;;;;;5027731;28;20052;-75
2022/06/02 12:17:01;;;;;;;4.53;1.83;;;17.80;99.90;;;;;;4996559;28;20395;-75
2022/06/02 12:19:53;;;;;;;4.65;1.70;;;17.90;99.90;;;;;;5011741;28;20045;-75
2022/06/02 12:22:57;;;;;;;4.22;1.80;;;17.80;99.90;;;;;;5021131;28;20041;-75
2022/06/02 12:25:40;;;;;;;4.88;1.90;;;17.80;99.90;;;;;;5027220;28;20549;-75
2022/06/02 12:28:15;;;;;;;3.50;1.67;;;18.00;99.90;;;;;;5027265;28;20517;-75
2022/06/02 12:30:59;;;;;;;3.65;1.50;;;17.80;99.90;;;;;;5030826;28;20048;-76
2022/06/02 12:33:45;;;;;;;4.75;1.90;;;17.80;99.90;;;;;;5015767;28;20168;-75
2022/06/02 12:36:41;;;;;;;2.63;1.45;;;17.90;99.90;;;;;;5029555;28;20042;-80
2022/06/02 12:39:25;;;;;;;3.03;1.80;;;18.00;99.90;;;;;;5028978;28;20435;-79
2022/06/02 12:42:28;;;;;;;2.85;1.60;;;18.00;99.90;;;;;;5031600;28;20050;-80
2022/06/02 12:45:22;;;;;;;3.33;1.75;;;18.10;99.90;;;;;;5031061;28;20076;-78
2022/06/02 12:48:25;;;;;;;3.22;1.80;;;18.10;99.90;;;;;;5030670;28;20513;-79
2022/06/02 12:51:17;;;;;;;3.63;1.63;;;18.10;99.90;;;;;;5030714;28;20045;-81
2022/06/02 12:54:19;;;;;;;3.38;1.55;;;18.10;99.90;;;;;;5030207;28;20033;-80
2022/06/02 12:57:06;;;;;;;4.78;1.83;;;18.30;99.90;;;;;;5046188;28;20051;-81
2022/06/02 12:59:44;;;;;;;4.38;1.85;;;18.30;99.90;;;;;;5047671;28;20067;-79
2022/06/02 13:02:30;;;;;;;3.83;1.60;;;18.10;99.90;;;;;;5031244;28;20501;-74
2022/06/02 13:05:17;;;;;;;5.50;1.73;;;18.10;99.90;;;;;;5014281;28;20033;-74
2022/06/02 13:08:18;;;;;;;4.25;1.80;;;18.30;99.90;;;;;;5031519;28;20044;-74
2022/06/02 13:10:58;;;;;;;8.60;1.80;;;18.30;99.90;;;;;;5007010;28;20099;-74
2022/06/02 13:14:06;;;;;;;6.95;1.98;;;18.30;99.90;;;;;;5013978;28;20136;-74
2022/06/02 13:16:50;;;;;;;5.18;1.80;;;18.10;99.90;;;;;;5013957;28;20054;-74
2022/06/02 13:19:41;;;;;;;5.13;1.90;;;18.20;99.90;;;;;;5031120;28;20046;-74
2022/06/02 13:22:30;;;;;;;4.82;1.98;;;18.20;99.90;;;;;;5030162;28;20055;-74
2022/06/02 13:25:20;;;;;;;3.75;1.50;;;18.10;99.90;;;;;;5028097;28;20068;-74
2022/06/02 13:28:10;;;;;;;4.97;2.00;;;18.20;99.90;;;;;;5030320;28;20050;-73
2022/06/02 13:31:04;;;;;;;5.88;1.73;;;18.00;99.90;;;;;;5017610;28;20385;-74
2022/06/02 13:33:57;;;;;;;3.83;2.00;;;17.90;99.90;;;;;;5012008;28;20124;-74
2022/06/02 13:36:55;;;;;;;3.70;1.85;;;18.10;99.90;;;;;;5034649;28;20041;-73
2022/06/02 13:39:42;;;;;;;3.45;1.70;;;18.20;99.90;;;;;;5034657;28;20045;-73
2022/06/02 13:42:38;;;;;;;2.95;1.65;;;18.10;99.90;;;;;;5034174;28;20052;-74
2022/06/02 13:45:29;;;;;;;3.92;1.77;;;18.20;99.90;;;;;;5033234;28;20037;-73
2022/06/02 13:48:32;;;;;;;4.30;1.80;;;18.20;99.90;;;;;;5035392;28;20509;-73
2022/06/02 13:51:28;;;;;;;4.25;1.83;;;18.30;99.90;;;;;;5017868;28;20053;-74
2022/06/02 13:57:32;;;;;;;3.72;1.80;;;18.00;99.90;;;;;;5025269;28;20073;-75
2022/06/02 14:00:19;;;;;;;5.18;1.90;;;17.80;99.90;;;;;;5050100;28;20041;-75
2022/06/02 14:03:06;;;;;;;3.55;1.65;;;17.70;99.90;;;;;;5049297;28;20038;-75
2022/06/02 14:05:54;;;;;;;4.07;2.13;;;17.60;99.90;;;;;;5024426;28;20034;-75
2022/06/02 14:08:44;;;;;;;4.28;1.90;;;17.60;99.90;;;;;;5027642;28;20124;-75
2022/06/02 14:11:16;;;;;;;4.05;2.20;;;17.80;99.90;;;;;;5033677;28;20053;-75
2022/06/02 14:14:16;;;;;;;4.85;1.98;;;17.80;99.90;;;;;;5032355;28;20045;-75
2022/06/02 14:17:10;;;;;;;4.22;1.77;;;17.80;99.90;;;;;;5033029;28;20038;-75
2022/06/02 14:19:57;;;;;;;3.65;1.80;;;17.80;99.90;;;;;;5028772;28;20493;-75
2022/06/02 14:22:49;;;;;;;3.85;1.42;;;18.00;99.90;;;;;;5018988;28;20129;-75
2022/06/02 14:25:24;;;;;;;3.70;1.60;;;18.10;99.90;;;;;;5033618;28;20407;-75
2022/06/02 14:28:12;;;;;;;3.95;1.60;;;17.80;99.90;;;;;;5031221;28;20037;-75
2022/06/02 14:30:46;;;;;;;2.97;1.50;;;17.70;99.90;;;;;;5033262;28;20091;-75
2022/06/02 14:33:18;;;;;;;3.13;1.48;;;17.60;99.90;;;;;;5033119;28;20033;-75
2022/06/02 14:36:06;;;;;;;2.55;1.30;;;17.50;99.90;;;;;;5016925;28;20044;-75
2022/06/02 14:38:41;;;;;;;3.92;1.58;;;17.50;99.90;;;;;;5030701;28;20044;-75
2022/06/02 14:41:19;;;;;;;2.90;1.60;;;17.50;99.90;;;;;;5032541;28;20129;-75